Time;durP1;ratioP1;P1;durP2;ratioP2;P2;SDS_P1;SDS_P2;PMS_P1;PMS_P2;Temp;Humidity;BMP_temperature;BMP_pressure;BME280_temperature;BME280_humidity;BME280_pressure;Samples;Min_cycle;Max_cycle;Signal;HPM_P1;HPM_P2
2023/03/19 00:01:41;;;;;;;2.40;2.15;;;;;;;9.96;100.00;101007.53;5077137;28;20024;-83
2023/03/19 00:04:07;;;;;;;2.92;2.05;;;;;;;9.95;100.00;101000.53;5086223;28;20024;-83
2023/03/19 00:06:32;;;;;;;3.63;2.35;;;;;;;9.95;100.00;101002.34;5081585;28;20036;-83
2023/03/19 00:08:58;;;;;;;2.60;2.00;;;;;;;9.95;100.00;101005.00;5084173;28;20025;-83
2023/03/19 00:11:23;;;;;;;4.07;1.90;;;;;;;9.94;100.00;100993.53;5087101;28;20024;-83
2023/03/19 00:13:49;;;;;;;3.00;1.95;;;;;;;9.95;100.00;100997.03;5095756;28;20028;-83
2023/03/19 00:16:14;;;;;;;2.35;1.90;;;;;;;9.92;100.00;101000.75;5095423;28;20054;-83
2023/03/19 00:18:40;;;;;;;2.22;1.98;;;;;;;9.90;100.00;101007.97;5083074;28;20021;-83
2023/03/19 00:21:05;;;;;;;3.17;2.20;;;;;;;9.89;100.00;101011.59;5092860;28;20051;-83
2023/03/19 00:23:30;;;;;;;3.35;2.20;;;;;;;9.87;100.00;101010.84;5084106;28;20029;-83
2023/03/19 00:25:56;;;;;;;3.83;2.40;;;;;;;9.88;100.00;101009.06;5089811;28;20032;-83
2023/03/19 00:28:21;;;;;;;3.08;2.40;;;;;;;9.88;100.00;101017.00;5094015;28;20099;-83
2023/03/19 00:30:46;;;;;;;2.80;2.60;;;;;;;9.81;100.00;101008.63;5079178;28;20044;-83
2023/03/19 00:33:12;;;;;;;3.80;2.40;;;;;;;9.83;100.00;101017.31;5094357;28;20386;-83
2023/03/19 00:35:39;;;;;;;4.03;2.28;;;;;;;9.82;100.00;101012.97;5094871;28;20035;-83
2023/03/19 00:38:04;;;;;;;2.42;2.22;;;;;;;9.79;100.00;101018.50;5080355;28;20027;-83
2023/03/19 00:40:29;;;;;;;3.08;2.40;;;;;;;9.79;100.00;101019.34;5098215;28;20028;-83
2023/03/19 00:42:55;;;;;;;4.68;2.58;;;;;;;9.77;100.00;101009.78;5097875;28;20031;-83
2023/03/19 00:45:20;;;;;;;3.80;2.88;;;;;;;9.77;100.00;101018.59;5098247;28;20024;-83
2023/03/19 00:47:46;;;;;;;3.88;2.60;;;;;;;9.75;100.00;101014.38;5098819;28;20081;-83
2023/03/19 00:50:12;;;;;;;4.70;2.90;;;;;;;9.76;100.00;101021.38;5098635;28;20056;-83
2023/03/19 00:52:37;;;;;;;4.03;3.22;;;;;;;9.75;100.00;101022.31;5099098;28;20543;-83
2023/03/19 00:55:02;;;;;;;4.38;2.88;;;;;;;9.74;100.00;101021.50;5080166;28;20028;-83
2023/03/19 00:57:28;;;;;;;4.53;2.67;;;;;;;9.73;100.00;101019.78;5097705;28;20032;-83
2023/03/19 00:59:53;;;;;;;4.47;3.00;;;;;;;9.72;100.00;101018.06;5084626;28;20012;-83
2023/03/19 01:02:18;;;;;;;3.30;2.55;;;;;;;9.69;100.00;101012.13;5098340;28;20028;-83
2023/03/19 01:04:46;;;;;;;4.38;2.92;;;;;;;9.69;100.00;101022.75;5096639;28;20381;-83
2023/03/19 01:07:12;;;;;;;5.22;2.90;;;;;;;9.69;100.00;101025.41;5090618;28;20070;-83
2023/03/19 01:09:37;;;;;;;4.63;3.15;;;;;;;9.69;100.00;101022.75;5087639;28;20020;-83
2023/03/19 01:12:03;;;;;;;4.22;3.00;;;;;;;9.65;100.00;101021.28;5103754;28;20024;-83
2023/03/19 01:14:30;;;;;;;4.35;2.90;;;;;;;9.65;100.00;101022.13;5102785;28;20031;-83
2023/03/19 01:16:55;;;;;;;4.72;3.00;;;;;;;9.65;100.00;101016.81;5102646;28;20039;-83
2023/03/19 01:19:21;;;;;;;4.30;3.33;;;;;;;9.66;100.00;101023.81;5096592;28;20024;-83
2023/03/19 01:21:48;;;;;;;4.15;3.40;;;;;;;9.65;100.00;101024.78;5091983;28;20111;-83
2023/03/19 01:24:13;;;;;;;5.15;3.28;;;;;;;9.65;100.00;101022.13;5084015;28;20023;-83
2023/03/19 01:26:42;;;;;;;4.85;3.22;;;;;;;9.65;100.00;101023.94;5105114;28;20052;-83
2023/03/19 01:29:07;;;;;;;6.28;3.70;;;;;;;9.65;100.00;101019.47;5091438;28;20051;-83
2023/03/19 01:31:33;;;;;;;4.35;3.35;;;;;;;9.65;100.00;101023.94;5089855;28;20080;-83
2023/03/19 01:33:59;;;;;;;7.10;3.50;;;;;;;9.63;100.00;101024.03;5094993;28;20492;-83
2023/03/19 01:36:24;;;;;;;5.85;3.38;;;;;;;9.62;100.00;101024.97;5090875;28;20104;-83
2023/03/19 01:38:50;;;;;;;4.15;3.58;;;;;;;9.59;100.00;101012.81;5100495;28;20035;-83
2023/03/19 01:41:16;;;;;;;5.72;3.45;;;;;;;9.61;100.00;101012.69;5104844;28;20020;-83
2023/03/19 01:43:41;;;;;;;5.25;3.38;;;;;;;9.62;100.00;101020.50;5088392;28;20062;-83
2023/03/19 01:46:15;;;;;;;5.55;3.80;;;;;;;9.63;100.00;101018.72;5098110;28;20107;-83
2023/03/19 01:48:47;;;;;;;5.18;3.45;;;;;;;9.61;100.00;101018.00;5098743;28;20032;-83
2023/03/19 01:51:15;;;;;;;6.55;3.42;;;;;;;9.62;100.00;101023.16;5100765;28;20039;-83
2023/03/19 01:53:46;;;;;;;3.78;3.28;;;;;;;9.63;100.00;101021.38;5082290;28;20070;-83
2023/03/19 01:56:17;;;;;;;5.32;3.75;;;;;;;9.63;100.00;101024.88;5085223;28;20026;-83
2023/03/19 01:58:45;;;;;;;4.13;3.45;;;;;;;9.62;100.00;101022.31;5091110;28;20100;-83
2023/03/19 02:01:14;;;;;;;4.20;3.63;;;;;;;9.63;100.00;101018.72;5091952;28;20070;-83
2023/03/19 02:03:40;;;;;;;4.32;3.67;;;;;;;9.63;100.00;101024.03;5087159;28;20028;-83
2023/03/19 02:06:06;;;;;;;6.57;3.63;;;;;;;9.63;100.00;101024.03;5096195;28;20034;-83
2023/03/19 02:08:34;;;;;;;5.75;4.00;;;;;;;9.60;100.00;101009.16;5097871;28;20028;-83
2023/03/19 02:11:00;;;;;;;7.32;4.22;;;;;;;9.63;100.00;101013.44;5093728;28;20497;-83
2023/03/19 02:13:26;;;;;;;6.22;3.95;;;;;;;9.64;100.00;101025.72;5097853;28;20027;-83
2023/03/19 02:15:53;;;;;;;4.30;3.90;;;;;;;9.65;100.00;101018.63;5098073;28;20185;-83
2023/03/19 02:18:18;;;;;;;4.75;4.07;;;;;;;9.63;100.00;101016.06;5083412;28;20025;-83
2023/03/19 02:21:13;;;;;;;7.63;4.38;;;;;;;9.66;100.00;101013.22;5086624;28;20100;-83
2023/03/19 02:23:53;;;;;;;7.15;4.28;;;;;;;9.64;100.00;101017.75;5087344;28;20071;-83
2023/03/19 02:26:22;;;;;;;7.18;4.13;;;;;;;9.64;100.00;101012.44;5097098;28;20024;-83
2023/03/19 02:28:49;;;;;;;4.77;4.20;;;;;;;9.64;100.00;101025.72;5097242;28;20031;-83
2023/03/19 02:31:15;;;;;;;5.95;4.90;;;;;;;9.64;100.00;101028.38;5093681;28;20772;-83
2023/03/19 02:33:41;;;;;;;6.07;4.22;;;;;;;9.65;100.00;101024.78;5089096;28;20028;-83
2023/03/19 02:36:12;;;;;;;4.95;4.18;;;;;;;9.65;100.00;101026.59;5096909;28;20019;-83
2023/03/19 02:38:39;;;;;;;6.60;4.32;;;;;;;9.65;100.00;101024.78;5089489;28;20068;-83
2023/03/19 02:41:07;;;;;;;6.70;4.57;;;;;;;9.65;100.00;101027.41;5092749;28;20386;-83
2023/03/19 02:43:34;;;;;;;6.40;4.50;;;;;;;9.64;100.00;101025.72;5089772;28;20024;-83
2023/03/19 02:46:02;;;;;;;5.75;4.60;;;;;;;9.60;100.00;101027.72;5097610;28;20055;-83
2023/03/19 02:48:27;;;;;;;7.68;4.78;;;;;;;9.63;100.00;101037.28;5082385;28;20471;-83
2023/03/19 02:50:53;;;;;;;6.00;4.70;;;;;;;9.64;100.00;101028.38;5071480;28;20077;-83
2023/03/19 02:53:19;;;;;;;6.55;4.68;;;;;;;9.66;100.00;101034.44;5083919;28;20070;-83
2023/03/19 02:55:44;;;;;;;5.35;4.70;;;;;;;9.66;100.00;101034.44;5086009;28;20099;-83
2023/03/19 02:58:10;;;;;;;5.47;4.60;;;;;;;9.66;100.00;101030.91;5081606;28;20718;-83
2023/03/19 03:00:36;;;;;;;5.60;4.65;;;;;;;9.66;100.00;101034.44;5098006;28;20020;-83
2023/03/19 03:03:02;;;;;;;5.25;4.70;;;;;;;9.63;100.00;101029.34;5086906;28;20056;-83
2023/03/19 03:05:27;;;;;;;7.90;4.95;;;;;;;9.65;100.00;101035.38;5089347;28;20043;-83
2023/03/19 03:07:52;;;;;;;6.25;4.72;;;;;;;9.67;100.00;101046.72;5108135;28;20024;-83
2023/03/19 03:10:18;;;;;;;7.22;5.20;;;;;;;9.67;100.00;101041.41;5103224;28;20017;-83
2023/03/19 03:12:43;;;;;;;6.65;4.72;;;;;;;9.67;100.00;101041.41;5098929;28;20101;-83
2023/03/19 03:15:09;;;;;;;5.85;4.97;;;;;;;9.67;100.00;101035.28;5098656;28;20089;-83
2023/03/19 03:17:42;;;;;;;7.28;5.18;;;;;;;9.67;100.00;101037.94;5101937;28;20054;-83
2023/03/19 03:20:10;;;;;;;6.32;4.78;;;;;;;9.67;100.00;101033.47;5101400;28;20035;-83
2023/03/19 03:22:35;;;;;;;7.35;4.78;;;;;;;9.68;100.00;101035.16;5098258;28;20024;-83
2023/03/19 03:25:01;;;;;;;8.52;4.93;;;;;;;9.68;100.00;101035.16;5097803;28;20099;-83
2023/03/19 03:27:26;;;;;;;5.47;4.97;;;;;;;9.67;100.00;101033.47;5083611;28;20440;-83
2023/03/19 03:29:52;;;;;;;7.95;5.30;;;;;;;9.67;100.00;101037.94;5084971;28;20044;-83
2023/03/19 03:32:17;;;;;;;6.97;5.20;;;;;;;9.66;100.00;101046.81;5081882;28;20389;-83
2023/03/19 03:34:44;;;;;;;7.97;5.57;;;;;;;9.63;100.00;101038.13;5097185;28;20083;-83
2023/03/19 03:37:10;;;;;;;5.78;5.25;;;;;;;9.62;100.00;101044.38;5090948;28;20558;-83
2023/03/19 03:39:36;;;;;;;7.75;5.38;;;;;;;9.57;100.00;101029.75;5088747;28;20059;-83
2023/03/19 03:42:02;;;;;;;6.97;5.30;;;;;;;9.54;100.00;101033.50;5096967;28;20035;-83
2023/03/19 03:44:27;;;;;;;6.10;5.30;;;;;;;9.52;100.00;101039.84;5087085;28;20024;-83
2023/03/19 03:46:52;;;;;;;5.82;4.88;;;;;;;9.45;100.00;101040.25;5095141;28;20028;-83
2023/03/19 03:49:17;;;;;;;7.32;5.00;;;;;;;9.46;100.00;101043.78;5095611;28;20051;-83
2023/03/19 03:51:43;;;;;;;6.47;5.00;;;;;;;9.40;100.00;101041.53;5083737;28;20131;-83
2023/03/19 03:54:08;;;;;;;6.93;5.60;;;;;;;9.39;100.00;101048.66;5095735;28;20024;-83
2023/03/19 03:56:33;;;;;;;6.43;5.45;;;;;;;9.38;100.00;101052.25;5095227;28;20161;-83
2023/03/19 03:59:00;;;;;;;8.02;5.53;;;;;;;9.36;100.00;101054.16;5094671;28;20490;-83
2023/03/19 04:01:26;;;;;;;6.65;5.28;;;;;;;9.30;100.00;101054.56;5095035;28;20457;-83
2023/03/19 04:03:51;;;;;;;8.13;5.68;;;;;;;9.28;100.00;101056.47;5095919;28;20035;-83
2023/03/19 04:06:20;;;;;;;7.82;5.50;;;;;;;9.26;100.00;101059.22;5096258;28;20025;-83
2023/03/19 04:08:46;;;;;;;7.20;5.83;;;;;;;9.23;100.00;101059.44;5097088;28;20035;-83
2023/03/19 04:11:11;;;;;;;7.32;5.43;;;;;;;9.19;100.00;101051.78;5088038;28;20017;-83
2023/03/19 04:13:36;;;;;;;7.50;5.70;;;;;;;9.12;100.00;101051.34;5099066;28;20043;-83
2023/03/19 04:16:06;;;;;;;8.25;5.72;;;;;;;9.11;100.00;101049.66;5092510;28;20066;-83
2023/03/19 04:18:32;;;;;;;8.10;5.45;;;;;;;9.09;100.00;101048.91;5084609;28;20490;-83
2023/03/19 04:20:57;;;;;;;7.60;6.20;;;;;;;9.04;100.00;101049.22;5094731;28;20023;-83
2023/03/19 04:23:23;;;;;;;6.40;5.35;;;;;;;9.00;100.00;101053.03;5083555;28;20494;-83
2023/03/19 04:25:49;;;;;;;6.75;5.70;;;;;;;8.96;100.00;101059.50;5093505;28;20032;-83
2023/03/19 04:28:14;;;;;;;7.38;5.75;;;;;;;8.92;100.00;101060.63;5094861;28;20020;-83
2023/03/19 04:30:40;;;;;;;8.52;5.75;;;;;;;8.90;100.00;101059.88;5094465;28;20052;-83
2023/03/19 04:33:05;;;;;;;6.82;5.60;;;;;;;8.86;100.00;101058.41;5083654;28;20023;-83
2023/03/19 04:35:31;;;;;;;6.47;5.82;;;;;;;8.84;100.00;101052.34;5076339;28;20527;-83
2023/03/19 04:37:56;;;;;;;7.78;6.10;;;;;;;8.80;100.00;101043.75;5086846;28;20106;-83
2023/03/19 04:40:22;;;;;;;7.28;5.93;;;;;;;8.75;100.00;101048.50;5085996;28;20044;-83
2023/03/19 04:42:47;;;;;;;8.80;6.25;;;;;;;8.72;100.00;101050.50;5085663;28;20111;-83
2023/03/19 04:45:12;;;;;;;8.32;6.32;;;;;;;8.67;100.00;101054.28;5093972;28;20378;-83
2023/03/19 04:47:38;;;;;;;7.68;6.18;;;;;;;8.66;100.00;101051.72;5094414;28;20028;-83
2023/03/19 04:50:06;;;;;;;6.13;5.60;;;;;;;8.61;100.00;101062.66;5077573;28;20455;-83
2023/03/19 04:52:32;;;;;;;6.88;6.15;;;;;;;8.60;100.00;101066.22;5084069;28;20039;-83
2023/03/19 04:54:57;;;;;;;9.55;6.55;;;;;;;8.57;100.00;101070.88;5079980;28;20020;-83
2023/03/19 04:57:23;;;;;;;8.88;6.45;;;;;;;8.53;100.00;101057.00;5094784;28;20028;-83
2023/03/19 04:59:48;;;;;;;10.60;6.55;;;;;;;8.50;100.00;101059.84;5075785;28;20135;-83
2023/03/19 05:02:14;;;;;;;8.25;6.30;;;;;;;8.46;100.00;101067.13;5083216;28;20033;-83
2023/03/19 05:04:39;;;;;;;8.65;6.32;;;;;;;8.45;100.00;101075.16;5096978;28;20031;-83
2023/03/19 05:07:06;;;;;;;8.00;6.30;;;;;;;8.43;100.00;101083.22;5092822;28;20071;-83
2023/03/19 05:09:31;;;;;;;9.13;7.13;;;;;;;8.39;100.00;101079.00;5092628;28;20052;-83
2023/03/19 05:11:57;;;;;;;11.65;7.28;;;;;;;8.37;100.00;101080.06;5094757;28;20066;-83
2023/03/19 05:14:22;;;;;;;7.65;6.82;;;;;;;8.34;100.00;101084.63;5092874;28;20024;-83
2023/03/19 05:16:48;;;;;;;9.13;7.13;;;;;;;8.31;100.00;101087.44;5075716;28;20024;-83
2023/03/19 05:19:13;;;;;;;9.27;7.18;;;;;;;8.28;100.00;101090.28;5106096;28;20020;-83
2023/03/19 05:21:39;;;;;;;12.60;7.53;;;;;;;8.27;100.00;101085.94;5095195;28;20463;-83
2023/03/19 05:24:05;;;;;;;9.57;7.10;;;;;;;8.22;100.00;101088.03;5097448;28;20031;-83
2023/03/19 05:26:31;;;;;;;10.65;7.38;;;;;;;8.20;100.00;101097.84;5087776;28;20040;-83
2023/03/19 05:28:56;;;;;;;9.02;7.15;;;;;;;8.22;100.00;101100.41;5094860;28;20044;-83
2023/03/19 05:31:21;;;;;;;9.93;7.82;;;;;;;8.21;100.00;101096.06;5097761;28;20047;-83
2023/03/19 05:33:46;;;;;;;8.00;7.20;;;;;;;8.18;100.00;101104.19;5083969;28;20483;-83
2023/03/19 05:36:12;;;;;;;10.07;7.60;;;;;;;8.18;100.00;101105.06;5098073;28;20394;-83
2023/03/19 05:38:38;;;;;;;9.30;7.40;;;;;;;8.14;100.00;101106.16;5093453;28;20111;-83
2023/03/19 05:41:06;;;;;;;10.57;7.70;;;;;;;8.11;100.00;101104.56;5077733;28;20532;-83
2023/03/19 05:43:32;;;;;;;9.15;7.10;;;;;;;8.10;100.00;101108.16;5083927;28;20024;-83
2023/03/19 05:45:58;;;;;;;8.27;7.03;;;;;;;8.08;100.00;101106.56;5098380;28;20107;-83
2023/03/19 05:48:24;;;;;;;8.30;7.50;;;;;;;8.06;100.00;101111.97;5097852;28;20035;-82
2023/03/19 05:50:51;;;;;;;8.57;7.68;;;;;;;8.07;100.00;101112.78;5098117;28;20169;-82
2023/03/19 05:53:17;;;;;;;9.38;7.25;;;;;;;8.01;100.00;101108.75;5098245;28;20454;-82
2023/03/19 05:55:43;;;;;;;8.60;7.80;;;;;;;8.04;100.00;101116.47;5097565;28;20034;-82
2023/03/19 05:58:08;;;;;;;9.15;7.53;;;;;;;8.01;100.00;101110.53;5098052;28;20016;-82
2023/03/19 06:00:34;;;;;;;9.27;7.85;;;;;;;7.99;100.00;101115.06;5087733;28;20033;-82
2023/03/19 06:02:59;;;;;;;12.32;8.30;;;;;;;7.98;100.00;101114.22;5089140;28;20028;-82
2023/03/19 06:05:25;;;;;;;9.93;7.55;;;;;;;7.95;100.00;101125.81;5087386;28;20029;-82
2023/03/19 06:07:50;;;;;;;8.60;7.72;;;;;;;7.93;100.00;101124.22;5077860;28;20501;-82
2023/03/19 06:10:16;;;;;;;10.30;8.48;;;;;;;7.92;100.00;101135.75;5089542;28;20032;-82
2023/03/19 06:12:41;;;;;;;10.95;7.68;;;;;;;7.88;100.00;101129.78;5096830;28;20099;-82
2023/03/19 06:15:08;;;;;;;10.32;8.13;;;;;;;7.90;100.00;101138.47;5097874;28;20081;-82
2023/03/19 06:17:33;;;;;;;10.60;8.40;;;;;;;7.87;100.00;101133.38;5083989;28;20035;-82
2023/03/19 06:19:58;;;;;;;9.32;7.97;;;;;;;7.89;100.00;101138.56;5096792;28;20032;-82
2023/03/19 06:22:25;;;;;;;11.52;9.00;;;;;;;7.89;100.00;101141.22;5097557;28;20482;-82
2023/03/19 06:24:51;;;;;;;10.45;8.23;;;;;;;7.89;100.00;101144.72;5097337;28;20024;-83
2023/03/19 06:27:16;;;;;;;12.15;8.38;;;;;;;7.88;100.00;101147.47;5081638;28;20026;-83
2023/03/19 06:29:42;;;;;;;12.18;9.65;;;;;;;7.90;100.00;101149.06;5086647;28;20382;-83
2023/03/19 06:32:07;;;;;;;13.60;9.57;;;;;;;7.93;100.00;101158.63;5081068;28;20028;-83
2023/03/19 06:34:33;;;;;;;11.98;9.63;;;;;;;7.93;100.00;101161.25;5096260;28;20449;-83
2023/03/19 06:36:58;;;;;;;12.88;9.60;;;;;;;7.93;100.00;101155.97;5093581;28;20031;-83
2023/03/19 06:39:23;;;;;;;13.68;10.52;;;;;;;7.94;100.00;101155.88;5093069;28;20054;-83
2023/03/19 06:41:49;;;;;;;13.15;9.63;;;;;;;7.94;100.00;101160.31;5098545;28;20059;-83
2023/03/19 06:44:14;;;;;;;15.27;10.57;;;;;;;7.95;100.00;101162.00;5099276;28;20024;-83
2023/03/19 06:46:39;;;;;;;13.32;10.40;;;;;;;7.95;100.00;101165.50;5084618;28;20028;-83
2023/03/19 06:49:05;;;;;;;11.85;10.63;;;;;;;7.97;100.00;101163.59;5100174;28;20043;-83
2023/03/19 06:51:31;;;;;;;13.77;10.77;;;;;;;7.99;100.00;101166.16;5088872;28;20032;-83
2023/03/19 06:53:56;;;;;;;13.65;11.25;;;;;;;8.00;100.00;101172.31;5082705;28;20044;-83
2023/03/19 06:56:22;;;;;;;13.90;11.68;;;;;;;8.02;100.00;101168.63;5095244;28;20032;-83
2023/03/19 06:58:47;;;;;;;14.18;11.43;;;;;;;8.05;100.00;101170.25;5104934;28;20063;-83
2023/03/19 07:01:12;;;;;;;15.07;11.48;;;;;;;8.07;100.00;101171.00;5100931;28;20021;-83
2023/03/19 07:03:38;;;;;;;11.73;10.43;;;;;;;8.10;100.00;101181.41;5082557;28;20036;-83
2023/03/19 07:06:03;;;;;;;14.68;11.55;;;;;;;8.13;100.00;101175.91;5078966;28;20461;-83
2023/03/19 07:08:29;;;;;;;16.17;12.18;;;;;;;8.18;100.00;101184.44;5076284;28;20032;-83
2023/03/19 07:10:55;;;;;;;15.52;11.88;;;;;;;8.25;100.00;101187.53;5089446;28;20402;-83
2023/03/19 07:13:21;;;;;;;14.52;12.52;;;;;;;8.29;100.00;101195.22;5096686;28;20028;-83
2023/03/19 07:15:48;;;;;;;13.43;12.05;;;;;;;8.34;100.00;101195.78;5096611;28;20035;-83
2023/03/19 07:18:13;;;;;;;16.15;12.27;;;;;;;8.39;100.00;101186.69;5086468;28;20111;-83
2023/03/19 07:20:39;;;;;;;17.33;12.30;;;;;;;8.45;100.00;101192.47;5109781;28;20023;-83
2023/03/19 07:23:04;;;;;;;16.17;13.63;;;;;;;8.52;100.00;101199.09;5107569;28;20146;-83
2023/03/19 07:25:30;;;;;;;17.15;13.57;;;;;;;8.59;100.00;101196.06;5093819;28;20577;-82
2023/03/19 07:27:55;;;;;;;16.95;13.57;;;;;;;8.65;100.00;101204.47;5077996;28;20035;-82
2023/03/19 07:30:20;;;;;;;17.15;14.45;;;;;;;8.74;100.00;101200.38;5080743;28;20053;-83
2023/03/19 07:32:46;;;;;;;17.55;14.48;;;;;;;8.83;100.00;101209.56;5098524;28;20028;-83
2023/03/19 07:35:13;;;;;;;18.73;15.23;;;;;;;8.94;100.00;101204.41;5115754;28;20040;-83
2023/03/19 07:37:38;;;;;;;17.58;14.52;;;;;;;9.04;100.00;101207.34;5109952;28;20367;-83
2023/03/19 07:40:04;;;;;;;17.40;14.43;;;;;;;9.17;100.00;101210.03;5099120;28;20024;-84
2023/03/19 07:42:29;;;;;;;19.33;13.70;;;;;;;9.30;100.00;101215.41;5113488;28;20047;-83
2023/03/19 07:44:55;;;;;;;19.98;14.00;;;;;;;9.43;100.00;101211.84;5107008;28;20036;-83
2023/03/19 07:47:20;;;;;;;18.00;12.60;;;;;;;9.58;100.00;101209.97;5098758;28;20118;-83
2023/03/19 07:49:46;;;;;;;21.00;12.75;;;;;;;9.73;100.00;101213.41;5090231;28;20053;-83
2023/03/19 07:52:12;;;;;;;15.63;11.43;;;;;;;9.91;100.00;101213.09;5088737;28;20044;-83
2023/03/19 07:54:37;;;;;;;20.45;11.50;;;;;;;10.02;100.00;101217.69;5081173;28;20028;-83
2023/03/19 07:57:04;;;;;;;15.35;10.30;;;;;;;10.07;100.00;101219.06;5095014;28;20032;-83
2023/03/19 07:59:29;;;;;;;14.80;9.38;;;;;;;10.18;100.00;101223.66;5100090;28;20363;-83
2023/03/19 08:01:54;;;;;;;17.40;8.88;;;;;;;10.22;100.00;101230.44;5080118;28;20090;-83
2023/03/19 08:04:20;;;;;;;15.38;8.13;;;;;;;10.26;100.00;101228.41;5096569;28;20024;-83
2023/03/19 08:06:45;;;;;;;18.77;7.88;;;;;;;10.28;100.00;101226.53;5098438;28;20027;-83
2023/03/19 08:09:10;;;;;;;20.20;8.20;;;;;;;10.32;100.00;101230.69;5113257;28;20046;-83
2023/03/19 08:11:36;;;;;;;19.80;8.23;;;;;;;10.33;100.00;101232.41;5102458;28;20028;-83
2023/03/19 08:14:01;;;;;;;16.30;8.45;;;;;;;10.36;100.00;101240.16;5092529;28;20040;-83
2023/03/19 08:16:27;;;;;;;13.57;7.60;;;;;;;10.39;100.00;101236.41;5095469;28;20059;-83
2023/03/19 08:18:52;;;;;;;16.33;8.18;;;;;;;10.45;100.00;101239.50;5092446;28;20043;-83
2023/03/19 08:21:17;;;;;;;16.88;8.23;;;;;;;10.50;100.00;101236.53;5095672;28;20020;-83
2023/03/19 08:23:43;;;;;;;14.38;8.57;;;;;;;10.51;100.00;101236.44;5093117;28;20368;-83
2023/03/19 08:26:08;;;;;;;15.25;8.45;;;;;;;10.52;100.00;101243.44;5095964;28;20062;-83
2023/03/19 08:28:34;;;;;;;16.05;8.45;;;;;;;10.61;100.00;101238.41;5082645;28;20091;-82
2023/03/19 08:31:10;;;;;;;16.95;8.25;;;;;;;10.82;100.00;101244.88;5099515;28;20028;-83
2023/03/19 08:33:36;;;;;;;13.95;8.20;;;;;;;11.01;100.00;101244.41;5091954;28;20090;-83
2023/03/19 08:36:06;;;;;;;14.68;8.68;;;;;;;11.22;100.00;101244.66;5094882;28;20071;-83
2023/03/19 08:38:31;;;;;;;21.77;9.02;;;;;;;11.39;100.00;101246.09;5111261;28;20075;-83
2023/03/19 08:41:00;;;;;;;15.57;7.38;;;;;;;11.59;100.00;101246.41;5094028;28;20400;-82
2023/03/19 08:43:26;;;;;;;13.75;7.10;;;;;;;11.70;100.00;101257.09;5080366;28;20036;-82
2023/03/19 08:45:51;;;;;;;15.00;6.25;;;;;;;11.75;100.00;101262.09;5085791;28;20070;-82
2023/03/19 08:48:17;;;;;;;14.02;5.95;;;;;;;11.76;99.23;101261.13;5099832;28;20107;-82
2023/03/19 08:50:42;;;;;;;17.38;5.72;;;;;;;11.72;99.59;101262.31;5082893;28;20028;-82
2023/03/19 08:53:07;;;;;;;16.05;6.40;;;;;;;11.72;98.51;101262.31;5092541;28;20047;-82
2023/03/19 08:55:33;;;;;;;13.68;6.28;;;;;;;11.76;99.28;101269.13;5094717;28;20031;-82
2023/03/19 08:57:59;;;;;;;14.25;6.13;;;;;;;11.75;99.31;101270.91;5096724;28;20127;-82
2023/03/19 09:00:26;;;;;;;13.63;5.10;;;;;;;11.71;97.67;101263.25;5101571;28;20051;-83
2023/03/19 09:02:52;;;;;;;15.48;6.03;;;;;;;11.73;98.20;101277.34;5083869;28;20127;-83
2023/03/19 09:05:21;;;;;;;21.25;5.65;;;;;;;11.68;97.33;101277.66;5089008;28;20052;-83
2023/03/19 09:07:46;;;;;;;16.08;5.50;;;;;;;11.68;96.63;101280.31;5095237;28;20048;-83
2023/03/19 09:10:12;;;;;;;14.32;5.57;;;;;;;11.69;96.99;101281.16;5095551;28;20404;-83
2023/03/19 09:12:40;;;;;;;14.80;5.57;;;;;;;11.70;96.04;101285.53;5095017;28;20032;-83
2023/03/19 09:15:08;;;;;;;21.80;5.73;;;;;;;11.64;96.08;101281.50;5102154;28;20024;-82
2023/03/19 09:17:34;;;;;;;19.93;6.67;;;;;;;11.61;96.54;101276.44;5082228;28;20036;-83
2023/03/19 09:19:59;;;;;;;19.85;5.72;;;;;;;11.65;94.88;101289.38;5091762;28;20054;-83
2023/03/19 09:22:25;;;;;;;17.17;6.00;;;;;;;11.84;96.45;101294.19;5101039;28;20042;-83
2023/03/19 09:24:50;;;;;;;17.98;7.03;;;;;;;12.05;95.37;101290.91;5090185;28;20082;-83
2023/03/19 09:27:16;;;;;;;15.65;6.15;;;;;;;12.34;95.32;101278.03;5099358;28;20040;-83
2023/03/19 09:29:41;;;;;;;18.70;6.35;;;;;;;12.62;94.74;101299.00;5084382;28;20074;-84
2023/03/19 09:32:07;;;;;;;14.60;5.93;;;;;;;12.91;93.91;101297.56;5093988;28;20023;-84
2023/03/19 09:34:32;;;;;;;15.10;5.30;;;;;;;13.19;92.56;101294.50;5091715;28;20040;-83
2023/03/19 09:36:57;;;;;;;16.83;5.85;;;;;;;13.43;90.93;101297.88;5093982;28;20028;-83
2023/03/19 09:39:23;;;;;;;15.73;5.68;;;;;;;13.62;88.04;101299.03;5099147;28;20040;-84
2023/03/19 09:42:19;;;;;;;14.98;5.35;;;;;;;13.83;88.67;101305.28;5116224;28;20032;-84
2023/03/19 09:44:45;;;;;;;15.27;6.28;;;;;;;14.14;87.78;101304.53;5109908;28;20057;-83
2023/03/19 09:47:24;;;;;;;14.07;5.22;;;;;;;14.34;86.77;101303.69;5102062;28;20114;-84
2023/03/19 09:49:53;;;;;;;15.15;4.80;;;;;;;14.48;83.33;101310.53;5090758;28;20040;-84
2023/03/19 09:52:18;;;;;;;16.30;5.05;;;;;;;14.73;82.74;101303.94;5103831;28;20044;-84
2023/03/19 09:54:51;;;;;;;15.83;4.90;;;;;;;15.02;81.55;101313.06;5102839;28;20376;-84
2023/03/19 09:57:16;;;;;;;12.55;4.72;;;;;;;15.15;80.46;101311.88;5084318;28;20277;-85
2023/03/19 09:59:42;;;;;;;12.55;4.53;;;;;;;15.21;78.55;101310.47;5095352;28;20044;-83
2023/03/19 10:02:32;;;;;;;11.15;4.40;;;;;;;15.26;80.20;101310.91;5099516;28;20104;-83
2023/03/19 10:05:40;;;;;;;13.77;4.55;;;;;;;15.32;80.69;101313.03;5098440;28;20430;-85
2023/03/19 10:08:32;;;;;;;11.95;3.92;;;;;;;15.35;81.12;101304.75;5098130;28;20133;-84
2023/03/19 10:11:16;;;;;;;10.38;3.85;;;;;;;15.26;79.09;101318.09;5093667;28;20106;-85
2023/03/19 10:14:01;;;;;;;13.15;4.53;;;;;;;15.19;78.88;101323.16;5099188;28;20395;-85
2023/03/19 10:16:28;;;;;;;11.63;4.18;;;;;;;15.23;76.96;101319.19;5112984;28;20173;-84
2023/03/19 10:19:01;;;;;;;14.88;3.78;;;;;;;15.32;78.37;101312.16;5092367;28;20089;-84
2023/03/19 10:21:47;;;;;;;13.63;4.30;;;;;;;15.36;78.85;101316.28;5087960;28;20016;-84
2023/03/19 10:24:33;;;;;;;9.88;3.75;;;;;;;15.36;78.64;101311.75;5092886;28;20035;-84
2023/03/19 10:27:12;;;;;;;15.10;3.88;;;;;;;15.42;78.45;101322.91;5099960;28;20789;-84
2023/03/19 10:29:40;;;;;;;13.23;3.78;;;;;;;15.32;75.54;101323.75;5096823;28;20101;-84
2023/03/19 10:32:28;;;;;;;13.05;3.55;;;;;;;15.35;75.20;101325.28;5084871;28;20514;-84
2023/03/19 10:34:57;;;;;;;14.40;3.72;;;;;;;15.32;75.70;101323.75;5073047;28;20035;-84
2023/03/19 10:37:29;;;;;;;10.88;3.67;;;;;;;15.28;76.88;101322.31;5100565;28;20107;-83
2023/03/19 10:39:58;;;;;;;13.27;3.80;;;;;;;15.23;75.22;101332.56;5088123;28;20079;-82
2023/03/19 10:43:04;;;;;;;13.75;4.30;;;;;;;15.19;77.60;101331.16;5101397;28;20024;-82
2023/03/19 10:45:36;;;;;;;12.38;4.20;;;;;;;15.03;76.43;101322.81;5100309;28;20019;-83
2023/03/19 10:48:03;;;;;;;14.90;4.40;;;;;;;14.97;77.17;101329.50;5083155;28;20089;-83
2023/03/19 10:50:37;;;;;;;13.75;4.00;;;;;;;15.06;78.15;101330.56;5080050;28;20024;-83
2023/03/19 10:53:13;;;;;;;12.13;3.78;;;;;;;15.11;77.51;101341.69;5099088;28;20039;-82
2023/03/19 10:56:00;;;;;;;13.18;3.95;;;;;;;15.32;79.19;101341.59;5097354;28;20107;-83
2023/03/19 10:58:28;;;;;;;15.20;4.13;;;;;;;15.28;76.36;101341.03;5097981;28;20055;-83
2023/03/19 11:01:08;;;;;;;11.43;4.63;;;;;;;15.25;76.03;101338.63;5107274;28;20839;-83
2023/03/19 11:03:33;;;;;;;12.13;3.90;;;;;;;15.23;74.59;101345.13;5088730;28;20185;-83
2023/03/19 11:06:32;;;;;;;13.57;4.50;;;;;;;15.30;76.90;101346.25;5098673;28;20474;-82
2023/03/19 11:08:59;;;;;;;;;;;;;;;15.39;78.57;101342.78;5062593;28;20305;-82
2023/03/19 11:11:52;;;;;;;11.88;4.32;;;;;;;15.24;76.48;101341.44;5094448;28;19919;-82
2023/03/19 11:14:26;;;;;;;12.38;4.20;;;;;;;15.04;74.75;101338.72;5090643;28;20048;-82
2023/03/19 11:16:57;;;;;;;16.48;4.70;;;;;;;15.04;75.18;101343.19;5095628;28;20490;-82
2023/03/19 11:19:26;;;;;;;10.88;7.13;;;;;;;14.98;76.58;101344.59;5091365;28;20096;-82
2023/03/19 11:22:06;;;;;;;16.00;8.40;;;;;;;15.03;76.85;101349.56;5089860;28;20028;-82